Time;durP1;ratioP1;P1;durP2;ratioP2;P2;SDS_P1;SDS_P2;PMS_P1;PMS_P2;Temp;Humidity;BMP_temperature;BMP_pressure;BME280_temperature;BME280_humidity;BME280_pressure;Samples;Min_cycle;Max_cycle;Signal;HPM_P1;HPM_P2
2022/08/03 00:01:39;;;;;;;15.70;9.65;;;;;;;19.36;100.00;98236.41;1760897;81;21059;-73
2022/08/03 00:04:06;;;;;;;12.37;9.20;;;;;;;19.37;100.00;98225.73;1760575;81;20975;-72
2022/08/03 00:06:34;;;;;;;14.63;9.55;;;;;;;19.38;100.00;98204.62;1760903;81;21512;-73
2022/08/03 00:09:00;;;;;;;13.70;9.90;;;;;;;19.38;100.00;98195.84;1760755;81;21539;-74
2022/08/03 00:11:27;;;;;;;16.32;9.78;;;;;;;19.39;100.00;98189.80;1760904;81;21011;-73
2022/08/03 00:13:54;;;;;;;15.65;9.83;;;;;;;19.41;100.00;98191.75;1760963;81;21015;-73
2022/08/03 00:16:21;;;;;;;14.68;9.65;;;;;;;19.41;100.00;98180.23;1760824;81;21018;-73
2022/08/03 00:18:47;;;;;;;14.55;9.33;;;;;;;19.44;100.00;98178.84;1760935;81;21047;-73
2022/08/03 00:21:14;;;;;;;13.78;9.70;;;;;;;19.45;100.00;98169.54;1760998;81;21039;-73
2022/08/03 00:23:41;;;;;;;14.63;9.40;;;;;;;19.46;100.00;98161.58;1760599;81;21058;-73
2022/08/03 00:26:07;;;;;;;15.00;10.28;;;;;;;19.48;100.00;98158.03;1760805;81;21030;-74
2022/08/03 00:28:34;;;;;;;14.03;10.25;;;;;;;19.49;100.00;98150.06;1760820;81;21042;-73
2022/08/03 00:31:01;;;;;;;17.25;10.80;;;;;;;19.47;100.00;98144.05;1761224;81;21050;-74
2022/08/03 00:33:28;;;;;;;14.05;10.15;;;;;;;19.46;100.00;98137.75;1760621;81;21043;-73
2022/08/03 00:35:54;;;;;;;16.35;10.10;;;;;;;19.47;100.00;98134.45;1761226;81;21051;-73
2022/08/03 00:38:21;;;;;;;15.83;10.50;;;;;;;19.47;100.00;98138.00;1766627;81;21493;-73
2022/08/03 00:40:48;;;;;;;17.00;10.43;;;;;;;19.47;100.00;98132.52;1766552;81;21000;-73
2022/08/03 00:43:14;;;;;;;14.90;10.15;;;;;;;19.46;100.00;98129.53;1766314;81;21043;-73
2022/08/03 00:45:41;;;;;;;14.47;10.40;;;;;;;19.43;100.00;98132.81;1732571;83;21045;-74
2022/08/03 00:48:10;;;;;;;15.98;11.20;;;;;;;19.43;100.00;98134.19;1719334;83;21084;-72
2022/08/03 00:50:41;;;;;;;17.30;11.03;;;;;;;19.42;100.00;98128.97;1766565;81;20976;-72
2022/08/03 00:53:13;;;;;;;19.55;11.30;;;;;;;19.43;100.00;98121.85;1766283;81;21047;-73
2022/08/03 00:55:41;;;;;;;16.87;11.00;;;;;;;19.43;100.00;98123.78;1766417;81;21047;-73
2022/08/03 00:58:09;;;;;;;19.40;12.28;;;;;;;19.42;100.00;98121.56;1781702;79;20985;-73
2022/08/03 01:00:38;;;;;;;19.87;13.28;;;;;;;19.41;100.00;98121.31;1793352;80;21020;-73
2022/08/03 01:03:07;;;;;;;20.72;13.18;;;;;;;19.42;100.00;98116.64;1793608;80;21016;-72
2022/08/03 01:05:57;;;;;;;20.52;14.10;;;;;;;19.41;100.00;98104.05;1793605;80;21022;-73
2022/08/03 01:08:47;;;;;;;21.42;13.83;;;;;;;19.44;100.00;98109.80;1668081;86;21018;-74
2022/08/03 01:11:34;;;;;;;22.35;14.47;;;;;;;19.45;100.00;98089.50;1549593;92;21095;-73
2022/08/03 01:14:20;;;;;;;19.95;13.78;;;;;;;19.47;100.00;98079.64;1549419;93;21125;-73
2022/08/03 01:17:07;;;;;;;22.55;14.20;;;;;;;19.50;100.00;98077.16;1549533;93;21103;-73
2022/08/03 01:20:01;;;;;;;23.27;16.05;;;;;;;19.50;100.00;98068.94;1509491;95;21142;-72
2022/08/03 01:22:39;;;;;;;22.35;15.10;;;;;;;19.50;100.00;98054.42;1511754;95;21104;-73
2022/08/03 01:25:13;;;;;;;22.70;15.05;;;;;;;19.48;100.00;98046.48;1441135;100;21077;-73
2022/08/03 01:28:22;;;;;;;21.17;14.50;;;;;;;19.46;100.00;98040.98;1465916;98;21116;-73
2022/08/03 01:30:49;;;;;;;21.48;15.28;;;;;;;19.44;100.00;98039.08;1466238;98;21096;-73
2022/08/03 01:33:19;;;;;;;24.52;15.63;;;;;;;19.38;100.00;98015.53;1466076;95;21275;-73
2022/08/03 01:35:59;;;;;;;21.97;14.65;;;;;;;19.35;100.00;98013.63;1466253;98;21135;-73
2022/08/03 01:38:54;;;;;;;22.42;14.80;;;;;;;19.32;100.00;98009.25;1405056;101;21189;-73
2022/08/03 01:41:25;;;;;;;20.05;14.23;;;;;;;19.29;100.00;98000.21;1405263;102;21186;-73
2022/08/03 01:43:52;;;;;;;21.30;14.50;;;;;;;19.28;100.00;97980.75;1404718;102;21172;-73
2022/08/03 01:46:19;;;;;;;21.33;14.40;;;;;;;19.26;100.00;97971.44;1409514;101;21138;-73
2022/08/03 01:48:47;;;;;;;24.15;16.00;;;;;;;19.24;100.00;97956.39;1433767;97;21129;-72
2022/08/03 01:51:15;;;;;;;25.37;17.23;;;;;;;19.23;100.00;97936.92;1425985;101;21109;-73
2022/08/03 01:53:42;;;;;;;25.20;17.20;;;;;;;19.21;100.00;97924.91;1450634;99;21124;-73
2022/08/03 01:56:09;;;;;;;28.87;19.62;;;;;;;19.21;100.00;97916.69;1451161;99;21112;-74
2022/08/03 01:58:36;;;;;;;28.95;20.20;;;;;;;19.21;100.00;97905.73;1467975;97;21098;-73
2022/08/03 02:01:04;;;;;;;30.60;19.82;;;;;;;19.21;100.00;97899.41;1472810;97;21126;-73
2022/08/03 02:03:35;;;;;;;28.32;19.85;;;;;;;19.21;100.00;97879.70;1532643;93;21115;-73
2022/08/03 02:06:03;;;;;;;28.20;19.35;;;;;;;19.20;100.00;97866.28;1578003;90;21074;-73
2022/08/03 02:08:31;;;;;;;25.40;18.62;;;;;;;19.18;100.00;97860.27;1581508;91;21569;-73
2022/08/03 02:10:58;;;;;;;25.02;18.32;;;;;;;19.16;100.00;97852.33;1611165;89;21120;-74
2022/08/03 02:13:25;;;;;;;27.15;18.05;;;;;;;19.15;100.00;97843.27;1611492;89;21510;-74
2022/08/03 02:15:51;;;;;;;27.82;18.00;;;;;;;19.14;100.00;97845.75;1611580;89;21055;-73
2022/08/03 02:18:19;;;;;;;27.65;18.05;;;;;;;19.13;100.00;97834.52;1611520;89;21058;-74
2022/08/03 02:20:45;;;;;;;25.90;17.25;;;;;;;19.14;100.00;97832.59;1622367;84;21096;-73
2022/08/03 02:23:15;;;;;;;25.65;17.57;;;;;;;19.13;100.00;97822.75;1695702;85;21162;-73
2022/08/03 02:25:45;;;;;;;24.30;16.70;;;;;;;19.12;100.00;97813.72;1696339;85;21037;-74
2022/08/03 02:28:18;;;;;;;22.58;16.93;;;;;;;19.12;100.00;97800.03;1696306;85;21093;-73
2022/08/03 02:30:50;;;;;;;23.22;16.32;;;;;;;19.12;100.00;97789.59;1673186;85;21583;-74
2022/08/03 02:33:21;;;;;;;22.32;16.82;;;;;;;19.10;100.00;97777.55;1696268;85;21042;-73
2022/08/03 02:35:48;;;;;;;24.65;17.17;;;;;;;19.08;100.00;97762.52;1739829;81;21011;-74
2022/08/03 02:38:16;;;;;;;24.25;17.27;;;;;;;19.05;100.00;97757.06;1763343;81;21036;-74
2022/08/03 02:40:43;;;;;;;22.17;16.50;;;;;;;19.03;100.00;97751.02;1763091;81;21519;-73
2022/08/03 02:43:14;;;;;;;21.95;16.80;;;;;;;19.02;100.00;97743.92;1763064;81;21002;-73
2022/08/03 02:45:44;;;;;;;22.85;16.55;;;;;;;19.01;100.00;97740.09;1763317;81;21486;-74
2022/08/03 02:48:11;;;;;;;24.23;16.15;;;;;;;19.01;100.00;97730.52;1713694;84;21029;-73
2022/08/03 02:50:38;;;;;;;23.52;16.50;;;;;;;19.02;100.00;97721.20;1714078;84;21073;-73
2022/08/03 02:53:05;;;;;;;21.45;15.98;;;;;;;19.03;100.00;97720.09;1714102;84;21062;-72
2022/08/03 02:55:33;;;;;;;21.93;15.13;;;;;;;19.03;100.00;97716.80;1714004;84;20997;-73
2022/08/03 02:58:00;;;;;;;21.15;15.38;;;;;;;19.02;100.00;97710.25;1704577;84;21089;-73
2022/08/03 03:00:27;;;;;;;20.95;15.72;;;;;;;19.03;100.00;97705.03;1696121;85;21093;-73
2022/08/03 03:02:57;;;;;;;22.55;15.53;;;;;;;19.01;100.00;97703.94;1696009;85;21063;-73
2022/08/03 03:05:24;;;;;;;21.97;14.75;;;;;;;19.02;100.00;97693.27;1695955;85;21063;-73
2022/08/03 03:07:51;;;;;;;21.25;15.25;;;;;;;19.02;100.00;97691.89;1695934;85;21555;-73
2022/08/03 03:10:21;;;;;;;22.65;17.05;;;;;;;19.05;100.00;97685.02;1672963;85;21046;-73
2022/08/03 03:12:51;;;;;;;21.27;15.90;;;;;;;19.07;100.00;97690.50;1696081;85;21058;-73
2022/08/03 03:15:18;;;;;;;23.47;16.67;;;;;;;19.10;100.00;97680.32;1695878;85;21547;-73
2022/08/03 03:17:44;;;;;;;23.42;16.75;;;;;;;19.15;100.00;97679.48;1696097;85;21018;-73
2022/08/03 03:20:12;;;;;;;21.70;15.45;;;;;;;19.17;100.00;97684.12;1695610;85;21081;-73
2022/08/03 03:22:39;;;;;;;20.68;15.50;;;;;;;19.20;100.00;97678.08;1672677;85;21051;-73
2022/08/03 03:25:06;;;;;;;25.60;16.37;;;;;;;19.20;100.00;97678.64;1696065;85;21054;-74
2022/08/03 03:27:33;;;;;;;20.37;15.88;;;;;;;19.18;100.00;97674.00;1695799;85;21007;-72
2022/08/03 03:30:00;;;;;;;22.37;15.65;;;;;;;19.16;100.00;97681.12;1695807;85;21062;-73
2022/08/03 03:32:28;;;;;;;21.62;15.93;;;;;;;19.20;100.00;97686.86;1696093;85;21059;-73
2022/08/03 03:34:55;;;;;;;22.80;16.10;;;;;;;19.22;100.00;97686.82;1696081;85;21484;-74
2022/08/03 03:37:24;;;;;;;21.65;15.90;;;;;;;19.26;100.00;97679.66;1707462;84;21078;-73
2022/08/03 03:39:55;;;;;;;23.42;17.17;;;;;;;19.30;100.00;97682.64;1696553;85;21563;-74
2022/08/03 03:42:21;;;;;;;23.60;17.45;;;;;;;19.32;100.00;97677.16;1696158;85;21026;-73
2022/08/03 03:44:48;;;;;;;24.98;18.10;;;;;;;19.37;100.00;97678.22;1707787;83;21040;-74
2022/08/03 03:47:15;;;;;;;21.75;16.55;;;;;;;19.37;100.00;97683.17;1722225;83;21016;-73
2022/08/03 03:49:42;;;;;;;21.27;16.00;;;;;;;19.38;100.00;97682.61;1721994;83;21032;-70
2022/08/03 03:52:09;;;;;;;22.55;15.38;;;;;;;19.40;100.00;97688.62;1722035;83;21000;-72
2022/08/03 03:54:41;;;;;;;21.65;15.55;;;;;;;19.43;100.00;97705.86;1722087;83;21000;-71
2022/08/03 03:57:09;;;;;;;22.20;16.30;;;;;;;19.45;100.00;97712.68;1720061;82;21081;-72
2022/08/03 03:59:39;;;;;;;24.63;16.52;;;;;;;19.49;100.00;97707.45;1725422;83;21039;-72
2022/08/03 04:02:07;;;;;;;22.45;16.42;;;;;;;19.52;100.00;97705.51;1640774;87;21500;-72
2022/08/03 04:13:08;;;;;;;22.15;17.17;;;;;;;19.68;100.00;97695.23;1654499;87;21070;-71
2022/08/03 04:15:38;;;;;;;23.07;17.42;;;;;;;19.73;100.00;97699.30;1654602;87;21111;-71
2022/08/03 04:18:05;;;;;;;24.18;17.12;;;;;;;19.76;100.00;97697.40;1586680;90;21610;-72
2022/08/03 04:20:32;;;;;;;24.02;17.02;;;;;;;19.81;100.00;97712.97;1585017;90;21085;-72
2022/08/03 04:22:59;;;;;;;23.12;17.67;;;;;;;19.86;100.00;97721.95;1584799;90;21123;-71
2022/08/03 04:25:29;;;;;;;23.92;16.77;;;;;;;19.92;100.00;97720.02;1585100;90;21045;-71
2022/08/03 04:27:58;;;;;;;25.77;17.10;;;;;;;19.97;100.00;97719.12;1584966;90;21127;-71
2022/08/03 04:30:27;;;;;;;23.30;17.45;;;;;;;20.03;100.00;97715.24;1584976;90;21615;-71
2022/08/03 04:32:56;;;;;;;22.22;16.65;;;;;;;20.13;100.00;97720.60;1584946;90;21160;-71
2022/08/03 04:35:24;;;;;;;21.37;16.12;;;;;;;20.23;100.00;97708.16;1585097;90;21519;-72
2022/08/03 04:37:51;;;;;;;20.75;15.93;;;;;;;20.34;100.00;97710.23;1610411;89;21081;-71
2022/08/03 04:40:22;;;;;;;21.57;16.25;;;;;;;20.43;100.00;97707.13;1614668;89;21045;-72
2022/08/03 04:42:49;;;;;;;22.17;16.77;;;;;;;20.54;100.00;97717.96;1613936;88;21066;-72
2022/08/03 04:45:16;;;;;;;22.42;16.32;;;;;;;20.65;100.00;97710.72;1614832;89;21062;-72
2022/08/03 04:47:42;;;;;;;23.95;16.57;;;;;;;20.79;100.00;97716.88;1614677;89;21145;-72
2022/08/03 04:50:09;;;;;;;24.25;17.30;;;;;;;20.89;100.00;97722.78;1614768;89;21062;-72
2022/08/03 04:52:36;;;;;;;22.32;16.45;;;;;;;21.03;100.00;97719.56;1614365;89;21156;-75
2022/08/03 04:55:04;;;;;;;23.07;17.30;;;;;;;21.21;100.00;97717.39;1614721;89;21086;-72
2022/08/03 04:57:31;;;;;;;22.17;17.20;;;;;;;21.42;100.00;97726.69;1598040;89;21616;-73
2022/08/03 04:59:59;;;;;;;24.52;20.10;;;;;;;21.65;100.00;97726.92;1614654;89;21099;-73
2022/08/03 05:02:26;;;;;;;23.85;18.23;;;;;;;21.87;100.00;97742.23;1614681;89;21069;-73
2022/08/03 05:04:52;;;;;;;167.55;145.50;;;;;;;22.11;100.00;97746.77;1636281;85;21604;-73
2022/08/03 05:07:19;;;;;;;26.48;21.40;;;;;;;22.37;100.00;97756.78;1685683;85;21560;-73
2022/08/03 05:09:46;;;;;;;22.67;17.25;;;;;;;22.67;100.00;97766.96;1685368;85;21050;-74
2022/08/03 05:12:13;;;;;;;23.18;16.93;;;;;;;22.95;100.00;97784.30;1685285;85;21110;-72
2022/08/03 05:14:40;;;;;;;21.48;16.10;;;;;;;23.20;100.00;97806.40;1685473;85;21023;-73
2022/08/03 05:17:09;;;;;;;263.92;239.90;;;;;;;23.39;100.00;97831.09;1685029;85;21046;-73
2022/08/03 05:19:35;;;;;;;24.65;19.60;;;;;;;23.52;100.00;97865.28;1685599;85;21504;-72
2022/08/03 05:22:02;;;;;;;23.95;16.50;;;;;;;23.61;100.00;97897.89;1719941;83;21050;-73
2022/08/03 05:24:29;;;;;;;22.75;16.17;;;;;;;23.59;100.00;97953.94;1729096;83;21039;-73
2022/08/03 05:26:56;;;;;;;20.25;14.93;;;;;;;23.54;100.00;98018.05;1728769;83;21082;-73
2022/08/03 05:29:23;;;;;;;20.57;15.58;;;;;;;23.48;100.00;98079.39;1728983;83;21014;-73
2022/08/03 05:31:50;;;;;;;20.70;15.60;;;;;;;23.43;100.00;98127.74;1727998;83;21026;-73
2022/08/03 05:34:16;;;;;;;19.92;15.85;;;;;;;23.41;100.00;98157.53;1728617;83;21819;-73
2022/08/03 05:36:43;;;;;;;23.12;15.78;;;;;;;23.41;100.00;98181.81;1733259;82;21048;-72
2022/08/03 05:39:10;;;;;;;32.03;23.98;;;;;;;23.44;100.00;98195.02;1741577;82;21048;-72
2022/08/03 05:41:39;;;;;;;24.02;15.78;;;;;;;23.49;100.00;98206.50;1740734;82;21092;-73
2022/08/03 05:44:05;;;;;;;21.25;16.95;;;;;;;23.53;100.00;98225.45;1740860;82;21012;-74
2022/08/03 05:46:33;;;;;;;21.33;15.85;;;;;;;23.52;100.00;98239.58;1740659;82;21100;-71
2022/08/03 05:48:59;;;;;;;24.10;18.60;;;;;;;23.48;100.00;98258.09;1740566;82;21119;-71
2022/08/03 05:51:27;;;;;;;21.73;15.80;;;;;;;23.43;100.00;98266.45;1741267;82;21025;-74
2022/08/03 05:53:54;;;;;;;108.87;70.47;;;;;;;23.41;100.00;98292.13;1741232;82;21045;-70
2022/08/03 05:56:23;;;;;;;78.10;68.90;;;;;;;23.38;100.00;98293.28;1741423;82;21000;-72
2022/08/03 05:58:51;;;;;;;151.30;135.68;;;;;;;23.41;100.00;98302.32;1731242;82;21553;-72
2022/08/03 06:01:18;;;;;;;29.85;24.45;;;;;;;23.43;100.00;98300.92;1729594;82;21486;-72
2022/08/03 06:03:45;;;;;;;24.67;19.20;;;;;;;23.49;100.00;98305.80;1757917;82;20991;-72
2022/08/03 06:06:12;;;;;;;23.57;17.65;;;;;;;23.50;100.00;98305.50;1757602;82;21086;-73
2022/08/03 06:08:40;;;;;;;20.25;16.67;;;;;;;23.58;100.00;98308.70;1758024;82;21151;-72
2022/08/03 06:11:07;;;;;;;23.65;17.62;;;;;;;23.66;100.00;98317.70;1757133;82;21038;-71
2022/08/03 06:13:34;;;;;;;29.32;17.98;;;;;;;23.80;100.00;98321.91;1757316;82;21085;-72
2022/08/03 06:16:01;;;;;;;23.27;17.92;;;;;;;23.93;100.00;98323.11;1757723;82;21535;-72
2022/08/03 06:18:28;;;;;;;23.67;17.60;;;;;;;24.07;100.00;98333.63;1757502;82;21066;-71
2022/08/03 06:20:55;;;;;;;23.83;17.82;;;;;;;24.23;100.00;98335.58;1757960;82;21026;-72
2022/08/03 06:23:21;;;;;;;22.58;17.85;;;;;;;24.40;100.00;98344.65;1757644;82;21065;-71
2022/08/03 06:25:48;;;;;;;23.55;17.37;;;;;;;24.59;100.00;98352.34;1758015;82;21027;-72
2022/08/03 06:28:16;;;;;;;24.95;17.70;;;;;;;24.82;100.00;98358.00;1757629;82;21053;-72
2022/08/03 06:30:46;;;;;;;22.50;18.02;;;;;;;25.04;100.00;98361.45;1757636;82;21053;-71
2022/08/03 06:33:12;;;;;;;25.48;18.10;;;;;;;25.28;100.00;98372.31;1747682;81;20986;-72
2022/08/03 06:35:39;;;;;;;25.27;17.75;;;;;;;25.62;100.00;98390.42;1750264;82;21034;-72
2022/08/03 06:38:06;;;;;;;22.87;16.97;;;;;;;25.99;100.00;98403.72;1759591;81;21045;-72
2022/08/03 06:40:38;;;;;;;23.77;17.15;;;;;;;26.29;100.00;98422.96;1757425;82;21505;-72
2022/08/03 06:43:03;;;;;;;22.37;16.62;;;;;;;26.58;100.00;98443.86;1756831;80;21042;-73
2022/08/03 06:45:30;;;;;;;21.93;16.52;;;;;;;26.86;100.00;98477.83;1768132;80;21475;-73
2022/08/03 06:48:04;;;;;;;24.67;17.92;;;;;;;27.10;100.00;98500.22;1788957;80;21014;-72
2022/08/03 06:50:32;;;;;;;23.87;18.35;;;;;;;27.37;100.00;98528.95;1789147;80;21002;-71
2022/08/03 06:52:59;;;;;;;24.25;17.70;;;;;;;27.44;100.00;98571.75;1789088;80;21015;-71
2022/08/03 06:55:26;;;;;;;23.00;17.00;;;;;;;27.55;100.00;98583.42;1788777;80;20995;-72
2022/08/03 06:57:53;;;;;;;22.73;17.30;;;;;;;27.80;100.00;98590.23;1763238;80;21081;-72
2022/08/03 07:00:20;;;;;;;26.73;22.37;;;;;;;28.10;100.00;98594.70;1734400;83;20991;-72
2022/08/03 07:02:47;;;;;;;27.02;18.45;;;;;;;28.36;100.00;98607.82;1734522;83;21599;-73
2022/08/03 07:05:13;;;;;;;23.75;17.48;;;;;;;28.50;100.00;98634.91;1707460;83;20991;-73
2022/08/03 07:07:42;;;;;;;23.83;19.02;;;;;;;28.53;100.00;98656.50;1734583;83;21005;-72
2022/08/03 07:10:10;;;;;;;88.40;74.90;;;;;;;28.55;100.00;98676.48;1734451;83;21077;-71
2022/08/03 07:12:37;;;;;;;55.03;47.20;;;;;;;28.55;100.00;98679.84;1734071;83;21049;-71
2022/08/03 07:15:05;;;;;;;26.33;21.87;;;;;;;28.49;100.00;98691.66;1734499;83;21431;-71
2022/08/03 07:17:33;;;;;;;22.00;17.60;;;;;;;28.31;100.00;98695.52;1733670;83;21537;-72
2022/08/03 07:20:03;;;;;;;24.92;18.55;;;;;;;28.08;100.00;98708.66;1733831;83;21133;-75
2022/08/03 07:22:30;;;;;;;27.42;19.02;;;;;;;27.83;100.00;98709.02;1734372;83;21484;-71
2022/08/03 07:24:57;;;;;;;28.10;20.52;;;;;;;27.68;100.00;98713.56;1735193;83;21049;-77
2022/08/03 07:27:25;;;;;;;26.70;19.65;;;;;;;27.50;100.00;98718.73;1734942;83;21559;-72
2022/08/03 07:29:54;;;;;;;81.45;72.80;;;;;;;27.35;100.00;98708.84;1734492;83;20990;-72
2022/08/03 07:32:20;;;;;;;32.23;26.17;;;;;;;27.23;100.00;98698.26;1734345;83;21022;-70
2022/08/03 07:34:47;;;;;;;27.55;20.37;;;;;;;27.20;100.00;98683.64;1734310;83;21527;-71
2022/08/03 07:37:14;;;;;;;21.37;16.80;;;;;;;27.16;100.00;98689.00;1734054;83;21009;-72
2022/08/03 07:39:41;;;;;;;26.30;17.95;;;;;;;27.11;100.00;98689.66;1733767;83;21025;-73
2022/08/03 07:42:08;;;;;;;29.25;18.35;;;;;;;27.04;100.00;98690.13;1734346;83;21009;-74
2022/08/03 07:44:35;;;;;;;25.20;17.62;;;;;;;26.98;100.00;98690.78;1734527;83;21062;-72
2022/08/03 07:47:02;;;;;;;26.48;21.55;;;;;;;26.94;100.00;98692.55;1734162;83;21514;-73
2022/08/03 07:49:29;;;;;;;208.40;186.67;;;;;;;26.88;100.00;98686.31;1733831;83;21073;-74
2022/08/03 07:54:41;;;;;;;26.27;20.27;;;;;;;26.78;100.00;98694.03;1734440;83;20986;-74
2022/08/03 07:57:08;;;;;;;22.62;16.97;;;;;;;26.82;100.00;98686.15;1735202;81;21009;-73
2022/08/03 07:59:38;;;;;;;20.92;16.30;;;;;;;26.94;100.00;98688.39;1791665;80;21059;-72
2022/08/03 08:02:05;;;;;;;24.85;16.80;;;;;;;27.04;100.00;98695.67;1791946;80;21536;-72
2022/08/03 08:04:32;;;;;;;31.25;18.20;;;;;;;27.06;100.00;98699.76;1776833;80;21066;-72
2022/08/03 08:06:59;;;;;;;25.25;17.95;;;;;;;27.09;100.00;98719.11;1791970;80;21031;-75
2022/08/03 08:09:26;;;;;;;27.30;18.85;;;;;;;27.05;100.00;98738.33;1791635;80;21168;-74
2022/08/03 08:11:53;;;;;;;24.18;17.00;;;;;;;27.04;100.00;98749.19;1791312;80;21051;-73
2022/08/03 08:14:19;;;;;;;36.40;29.98;;;;;;;27.04;100.00;98755.31;1791007;80;21015;-71
2022/08/03 08:16:47;;;;;;;23.30;17.02;;;;;;;27.01;100.00;98764.24;1790424;80;21027;-70
2022/08/03 08:19:15;;;;;;;23.62;17.60;;;;;;;27.04;100.00;98759.47;1787436;80;21050;-72
2022/08/03 08:21:43;;;;;;;25.62;16.20;;;;;;;27.02;100.00;98776.96;1760776;80;21023;-70
2022/08/03 08:24:09;;;;;;;20.92;15.32;;;;;;;27.04;100.00;98778.31;1760819;81;21008;-73
2022/08/03 08:26:36;;;;;;;23.00;15.58;;;;;;;27.13;100.00;98770.62;1760391;81;21086;-72
2022/08/03 08:29:03;;;;;;;22.55;15.18;;;;;;;27.25;100.00;98776.45;1759568;81;21070;-70
2022/08/03 08:31:30;;;;;;;21.35;15.05;;;;;;;27.30;100.00;98793.02;1760066;81;21560;-73
2022/08/03 08:33:57;;;;;;;30.12;17.35;;;;;;;27.38;100.00;98795.64;1760589;81;21571;-72
2022/08/03 08:36:24;;;;;;;20.45;14.78;;;;;;;27.43;100.00;98807.44;1772482;79;21013;-72
2022/08/03 08:38:51;;;;;;;22.52;15.32;;;;;;;27.54;100.00;98802.47;1808402;79;21022;-73
2022/08/03 08:41:18;;;;;;;18.95;13.75;;;;;;;27.69;100.00;98806.81;1808219;79;21477;-72
2022/08/03 08:43:45;;;;;;;22.37;14.23;;;;;;;27.82;100.00;98825.39;1807776;79;21069;-72
2022/08/03 08:46:12;;;;;;;22.13;15.63;;;;;;;27.99;100.00;98828.91;1808462;79;21046;-74
2022/08/03 08:48:41;;;;;;;20.80;15.25;;;;;;;28.10;100.00;98848.08;1808024;79;21568;-72
2022/08/03 08:51:08;;;;;;;23.45;16.37;;;;;;;28.06;100.00;98884.59;1805583;79;20991;-73
2022/08/03 08:53:36;;;;;;;26.17;17.52;;;;;;;27.90;100.00;98886.30;1807371;79;21031;-74
2022/08/03 08:56:03;;;;;;;22.60;16.32;;;;;;;27.77;100.00;98876.89;1807678;79;21066;-74
2022/08/03 08:58:34;;;;;;;22.70;17.65;;;;;;;27.64;100.00;98879.97;1792347;79;21592;-74
2022/08/03 09:01:01;;;;;;;22.85;17.73;;;;;;;27.56;100.00;98871.56;1788105;80;21032;-74
2022/08/03 09:03:28;;;;;;;23.35;18.77;;;;;;;27.48;100.00;98863.95;1787558;80;21036;-72
2022/08/03 09:05:56;;;;;;;25.15;18.12;;;;;;;27.48;100.00;98855.63;1788360;80;20988;-78
2022/08/03 09:08:22;;;;;;;23.05;19.50;;;;;;;27.60;100.00;98835.89;1788360;80;21534;-74
2022/08/03 09:10:49;;;;;;;21.52;18.23;;;;;;;27.75;100.00;98836.13;1788351;80;21047;-77
2022/08/03 09:13:16;;;;;;;20.27;16.57;;;;;;;27.80;100.00;98833.77;1787942;80;21526;-76
2022/08/03 09:15:43;;;;;;;20.80;15.63;;;;;;;27.87;100.00;98840.28;1788180;80;21075;-77
2022/08/03 09:18:11;;;;;;;24.77;19.40;;;;;;;28.03;100.00;98831.30;1788751;80;21486;-76
2022/08/03 09:20:38;;;;;;;21.57;15.60;;;;;;;28.23;100.00;98846.39;1788868;80;21449;-75
2022/08/03 09:23:08;;;;;;;19.65;15.53;;;;;;;28.33;100.00;98878.06;1788622;80;21044;-77
2022/08/03 09:25:41;;;;;;;18.67;14.98;;;;;;;28.46;100.00;98879.95;1788754;80;21004;-75
2022/08/03 09:28:13;;;;;;;21.70;13.22;;;;;;;28.67;100.00;98898.89;1788643;80;20988;-76
2022/08/03 09:30:44;;;;;;;17.55;13.48;;;;;;;28.91;100.00;98924.95;1788678;80;20961;-75
2022/08/03 09:33:15;;;;;;;19.42;13.53;;;;;;;29.21;100.00;98930.84;1788233;80;21082;-73
2022/08/03 09:35:46;;;;;;;19.32;13.85;;;;;;;29.54;100.00;98949.37;1788885;80;21058;-75
2022/08/03 09:38:24;;;;;;;16.83;11.80;;;;;;;29.77;100.00;98998.84;1817247;79;20967;-76
2022/08/03 09:40:52;;;;;;;17.55;12.58;;;;;;;29.62;100.00;99042.43;1816424;79;20991;-75
2022/08/03 09:43:18;;;;;;;16.70;12.23;;;;;;;29.34;100.00;99050.98;1791012;80;21050;-75
2022/08/03 09:45:45;;;;;;;16.40;11.97;;;;;;;29.18;100.00;99052.55;1779756;80;21038;-74
2022/08/03 09:48:30;;;;;;;17.07;12.18;;;;;;;28.96;100.00;99065.32;1784336;80;21576;-73
2022/08/03 09:51:02;;;;;;;17.75;12.45;;;;;;;28.88;100.00;99064.13;1731650;83;21531;-74
2022/08/03 09:53:29;;;;;;;16.17;11.70;;;;;;;28.88;100.00;99061.90;1731355;83;21595;-75
2022/08/03 09:55:58;;;;;;;17.50;11.85;;;;;;;29.09;100.00;99066.38;1731549;83;21272;-76
2022/08/03 09:58:32;;;;;;;17.87;11.43;;;;;;;29.34;100.00;99071.31;1731105;82;21070;-75
2022/08/03 10:01:04;;;;;;;15.95;11.85;;;;;;;29.51;100.00;99092.03;1732611;83;21511;-76
2022/08/03 10:03:35;;;;;;;18.27;13.90;;;;;;;29.56;100.00;99105.00;1732222;83;21085;-77
2022/08/03 10:06:19;;;;;;;32.45;14.55;;;;;;;29.46;100.00;99098.55;1731715;83;21082;-75
2022/08/03 10:08:46;;;;;;;18.80;12.47;;;;;;;29.39;100.00;99068.95;1732636;83;21058;-76
2022/08/03 10:11:13;;;;;;;20.12;12.18;;;;;;;29.39;100.00;99065.34;1732781;83;21059;-75
2022/08/03 10:13:40;;;;;;;16.15;11.43;;;;;;;29.43;100.00;99060.77;1708315;83;21041;-76
2022/08/03 10:16:07;;;;;;;17.77;12.45;;;;;;;29.43;100.00;99083.89;1731667;83;20998;-74
2022/08/03 10:18:44;;;;;;;17.35;12.50;;;;;;;29.35;100.00;99092.43;1703211;83;21038;-75
2022/08/03 10:21:13;;;;;;;16.17;12.35;;;;;;;29.27;100.00;99102.13;1731639;83;21053;-73
2022/08/03 10:23:40;;;;;;;16.45;12.70;;;;;;;29.13;100.00;99106.37;1727276;82;21556;-75
2022/08/03 10:26:08;;;;;;;16.42;11.73;;;;;;;29.04;100.00;99105.46;1715575;82;21030;-76
2022/08/03 10:28:39;;;;;;;18.48;12.05;;;;;;;29.01;100.00;99111.11;1726997;82;21063;-74
2022/08/03 10:31:06;;;;;;;18.15;13.10;;;;;;;29.13;100.00;99130.02;1722792;82;21089;-75
2022/08/03 10:33:39;;;;;;;18.30;13.90;;;;;;;29.29;100.00;99129.09;1742767;81;20991;-74
2022/08/03 10:36:08;;;;;;;25.82;21.37;;;;;;;29.41;100.00;99120.98;1755571;81;21496;-79
2022/08/03 10:38:45;;;;;;;23.83;16.77;;;;;;;29.46;100.00;99128.36;1758694;81;21070;-78
2022/08/03 10:41:12;;;;;;;20.30;15.08;;;;;;;29.38;100.00;99147.25;1730646;82;21077;-76
2022/08/03 10:43:58;;;;;;;20.57;13.83;;;;;;;29.27;100.00;99134.98;1759021;81;21026;-76
2022/08/03 10:46:25;;;;;;;18.32;12.45;;;;;;;29.20;100.00;99144.34;1759039;81;21014;-76
2022/08/03 10:48:52;;;;;;;17.15;12.70;;;;;;;29.17;100.00;99144.97;1724947;82;21058;-76
2022/08/03 10:51:19;;;;;;;23.67;13.38;;;;;;;29.26;100.00;99153.39;1707964;84;21053;-74
2022/08/03 10:53:47;;;;;;;17.27;12.33;;;;;;;29.42;100.00;99154.63;1728833;81;21825;-77
2022/08/03 10:59:49;;;;;;;294.37;102.70;;;;;;;29.70;100.00;99211.57;1731810;82;21126;-76
2022/08/03 11:02:16;;;;;;;25.32;15.35;;;;;;;29.62;100.00;99219.29;1638269;88;21081;-77
2022/08/03 11:04:46;;;;;;;22.22;13.18;;;;;;;29.22;100.00;99207.48;1637936;88;21519;-80
2022/08/03 11:07:22;;;;;;;22.13;12.33;;;;;;;28.87;100.00;99207.72;1637116;88;21625;-77
2022/08/03 11:09:53;;;;;;;20.35;12.80;;;;;;;28.61;100.00;99205.49;1637455;88;21588;-74
2022/08/03 11:12:28;;;;;;;15.32;9.28;;;;;;;28.53;100.00;99202.04;1559138;91;21292;-74
2022/08/03 11:14:56;;;;;;;12.95;7.95;;;;;;;28.46;100.00;99230.83;1559097;92;21581;-76
2022/08/03 11:17:23;;;;;;;14.33;8.28;;;;;;;28.22;100.00;99249.91;1559359;92;21103;-77
2022/08/03 11:19:51;;;;;;;17.15;11.45;;;;;;;27.86;100.00;99250.55;1559230;92;21170;-75
2022/08/03 11:22:19;;;;;;;19.42;8.90;;;;;;;27.58;100.00;99239.93;1559383;92;21147;-75
2022/08/03 11:24:56;;;;;;;18.10;10.70;;;;;;;27.39;100.00;99242.73;1540405;92;21529;-75
2022/08/03 11:27:25;;;;;;;22.95;12.10;;;;;;;27.09;100.00;99246.20;1559047;92;21098;-76
2022/08/03 11:30:20;;;;;;;23.98;13.58;;;;;;;26.81;100.00;99235.54;1559193;92;21564;-76
2022/08/03 11:32:52;;;;;;;25.32;15.00;;;;;;;26.65;100.00;99219.67;1558710;92;21628;-78